Time;durP1;ratioP1;P1;durP2;ratioP2;P2;SDS_P1;SDS_P2;PMS_P1;PMS_P2;Temp;Humidity;BMP_temperature;BMP_pressure;BME280_temperature;BME280_humidity;BME280_pressure;Samples;Min_cycle;Max_cycle;Signal;HPM_P1;HPM_P2
2022/10/31 00:00:46;;;;;;;;;8.50;6.00;;;;;13.54;71.65;100957.63;5112581;27;45525;-90
2022/10/31 00:03:12;;;;;;;;;6.25;5.00;;;;;14.98;71.95;101207.22;5108308;27;48119;-90
2022/10/31 00:05:42;;;;;;;;;6.00;5.50;;;;;13.15;71.72;100886.94;5120474;27;45405;-89
2022/10/31 00:08:08;;;;;;;;;5.50;5.00;;;;;13.80;72.01;100996.81;5100655;27;45399;-90
2022/10/31 00:10:33;;;;;;;;;6.00;6.00;;;;;13.63;71.71;100983.09;5105900;27;45439;-90
2022/10/31 00:12:59;;;;;;;;;5.75;5.75;;;;;14.91;71.47;101205.69;5109888;27;47067;-92
2022/10/31 00:15:24;;;;;;;;;5.75;5.75;;;;;13.77;71.82;101009.28;5111336;27;45309;-91
2022/10/31 00:17:51;;;;;;;;;6.00;6.00;;;;;14.58;71.84;101163.09;5112939;27;45375;-89
2022/10/31 00:20:16;;;;;;;;;5.25;5.25;;;;;14.03;72.19;101057.31;5135926;27;44883;-93
2022/10/31 00:22:42;;;;;;;;;7.00;7.00;;;;;14.28;72.35;101091.19;5141433;27;45927;-92
2022/10/31 00:25:07;;;;;;;;;6.00;6.00;;;;;13.20;72.10;100925.75;5111713;27;45296;-91
2022/10/31 00:27:33;;;;;;;;;5.50;4.75;;;;;13.25;72.11;100919.41;5103280;27;45499;-91
2022/10/31 00:29:58;;;;;;;;;6.75;6.75;;;;;14.29;71.99;101106.25;5102199;27;45385;-92
2022/10/31 00:32:24;;;;;;;;;7.00;7.00;;;;;14.12;72.39;101076.56;5119058;27;47345;-91
2022/10/31 00:34:49;;;;;;;;;4.75;4.75;;;;;14.24;71.95;101102.81;5101852;27;45606;-90
2022/10/31 00:37:15;;;;;;;;;5.00;5.00;;;;;13.67;72.01;101022.81;5106381;27;45297;-91
2022/10/31 00:39:40;;;;;;;;;7.00;6.25;;;;;14.19;72.42;101104.72;5123137;27;45613;-92
2022/10/31 00:42:05;;;;;;;;;6.50;5.25;;;;;13.81;72.19;101037.53;5110847;27;48191;-91
2022/10/31 00:44:31;;;;;;;;;6.50;6.50;;;;;14.16;72.38;101107.47;5107732;27;45387;-91
2022/10/31 00:46:56;;;;;;;;;5.00;5.00;;;;;13.53;72.17;100995.75;5123434;27;45431;-91
2022/10/31 00:49:22;;;;;;;;;6.25;6.00;;;;;13.52;72.44;100999.31;5111366;27;45020;-92
2022/10/31 00:51:48;;;;;;;;;8.75;8.00;;;;;14.37;72.33;101130.81;5131052;27;46044;-91
2022/10/31 00:54:13;;;;;;;;;7.25;7.00;;;;;13.66;72.31;101012.22;5130623;27;45606;-91
2022/10/31 00:56:38;;;;;;;;;8.00;8.00;;;;;13.88;72.68;101049.75;5128330;27;45423;-92
2022/10/31 00:59:03;;;;;;;;;10.75;9.75;;;;;13.54;72.43;100993.94;5103049;27;45515;-92
2022/10/31 01:01:29;;;;;;;;;6.75;6.75;;;;;14.12;72.60;101100.47;5120961;27;45482;-91
2022/10/31 01:03:55;;;;;;;;;9.00;8.25;;;;;14.71;72.73;101196.44;5101453;27;45487;-90
2022/10/31 01:06:20;;;;;;;;;7.00;7.00;;;;;14.25;72.47;101104.56;5103556;27;45340;-90
2022/10/31 01:08:47;;;;;;;;;8.25;7.75;;;;;14.37;73.02;101120.19;5105784;27;45321;-92
2022/10/31 01:11:22;;;;;;;;;6.25;6.25;;;;;13.94;72.54;101052.22;5104187;27;46977;-92
2022/10/31 01:13:49;;;;;;;;;10.25;7.75;;;;;13.82;72.49;101018.03;5108659;27;45407;-90
2022/10/31 01:16:17;;;;;;;;;9.50;6.50;;;;;14.13;72.74;101055.25;5112497;27;45501;-90
2022/10/31 01:18:43;;;;;;;;;9.00;8.50;;;;;14.37;72.63;101092.72;5115491;27;45402;-91
2022/10/31 01:21:13;;;;;;;;;8.00;7.00;;;;;14.13;72.63;101052.59;5111413;27;46833;-90
2022/10/31 01:23:39;;;;;;;;;8.00;7.00;;;;;13.06;72.33;100858.00;5120210;27;44711;-90
2022/10/31 01:26:12;;;;;;;;;9.75;9.75;;;;;14.57;72.88;101114.34;5113130;27;45357;-90
2022/10/31 01:28:45;;;;;;;;;11.25;10.25;;;;;14.24;72.85;101060.28;5107674;27;45379;-91
2022/10/31 01:31:11;;;;;;;;;7.25;7.25;;;;;14.21;72.48;101044.41;5094766;27;46952;-90
2022/10/31 01:33:37;;;;;;;;;7.75;6.75;;;;;14.17;72.73;101040.13;5081401;27;45434;-90
2022/10/31 01:36:20;;;;;;;;;8.25;7.50;;;;;14.21;72.50;101044.41;5081092;27;45302;-90
2022/10/31 01:38:47;;;;;;;;;10.50;10.00;;;;;13.65;72.57;100955.59;5081269;27;45508;-90
2022/10/31 01:41:15;;;;;;;;;6.75;6.75;;;;;14.20;72.59;101043.56;5085442;27;47365;-93
2022/10/31 01:43:44;;;;;;;;;10.75;9.75;;;;;14.78;72.88;101135.94;5094638;27;45283;-92
2022/10/31 01:46:10;;;;;;;;;8.25;8.25;;;;;13.68;72.63;100960.81;5097280;27;45240;-92
2022/10/31 01:48:39;;;;;;;;;8.00;8.00;;;;;13.29;72.55;100873.31;5086274;27;45613;-92
2022/10/31 01:51:08;;;;;;;;;8.75;8.50;;;;;13.88;72.96;100956.75;5075523;27;47770;-92
2022/10/31 01:53:35;;;;;;;;;9.00;8.50;;;;;14.82;72.81;101120.75;5093803;27;45303;-93
2022/10/31 01:56:01;;;;;;;;;11.00;10.50;;;;;13.66;72.98;100919.25;5067755;27;45285;-90
2022/10/31 01:58:31;;;;;;;;;10.25;8.50;;;;;12.78;72.97;100780.88;5102933;27;45192;-91
2022/10/31 02:00:59;;;;;;;;;9.25;8.25;;;;;13.65;72.54;100928.16;5103553;27;48025;-91
2022/10/31 02:03:26;;;;;;;;;7.25;7.00;;;;;13.32;72.86;100875.88;5101545;27;45483;-92
2022/10/31 02:06:00;;;;;;;;;13.00;9.00;;;;;14.04;72.55;100992.63;5101395;27;45284;-90
2022/10/31 02:08:32;;;;;;;;;9.00;7.75;;;;;13.57;72.42;100919.50;5101056;27;45385;-91
2022/10/31 02:10:59;;;;;;;;;11.25;9.00;;;;;14.85;72.90;101126.88;5101065;27;48242;-91
2022/10/31 02:13:27;;;;;;;;;10.25;10.25;;;;;13.72;72.90;100924.41;5105073;27;45420;-90
2022/10/31 02:15:56;;;;;;;;;9.25;9.25;;;;;13.99;72.89;100964.41;5105611;27;45366;-90
2022/10/31 02:18:24;;;;;;;;;7.00;7.00;;;;;13.81;72.74;100923.28;5104174;27;45577;-90
2022/10/31 02:21:14;;;;;;;;;7.75;7.75;;;;;14.88;72.83;101099.31;5100373;27;45334;-90
2022/10/31 02:23:40;;;;;;;;;6.50;6.50;;;;;14.89;72.93;101101.03;5100726;27;45416;-91
2022/10/31 02:26:08;;;;;;;;;7.50;7.50;;;;;14.89;73.13;101088.63;5105005;27;45248;-89
2022/10/31 02:29:19;;;;;;;;;13.75;12.25;;;;;13.78;72.75;100912.75;5107434;27;45445;-91
2022/10/31 02:32:03;;;;;;;;;10.00;9.00;;;;;14.91;73.25;101099.22;5104988;27;45517;-90
2022/10/31 02:34:55;;;;;;;;;5.00;2.25;;;;;13.95;72.69;100941.50;5105576;27;45349;-91
2022/10/31 02:37:59;;;;;;;;;5.75;5.75;;;;;14.92;72.89;101093.84;5116534;27;45445;-90
2022/10/31 02:40:26;;;;;;;;;8.50;7.50;;;;;14.04;73.12;100944.78;5018384;28;45662;-91
2022/10/31 02:43:10;;;;;;;;;7.00;6.00;;;;;13.12;72.79;100775.56;5035245;28;46989;-92
2022/10/31 02:46:05;;;;;;;;;7.50;7.25;;;;;14.86;73.33;101090.47;5018634;28;45309;-90
2022/10/31 02:48:35;;;;;;;;;7.75;7.75;;;;;14.64;73.24;101024.63;5022841;28;45425;-91
2022/10/31 02:51:03;;;;;;;;;10.00;8.50;;;;;13.97;73.08;100903.34;5038982;28;45479;-91
2022/10/31 02:53:36;;;;;;;;;6.50;6.50;;;;;13.04;72.90;100755.44;5018873;28;46904;-91
2022/10/31 02:56:12;;;;;;;;;5.75;5.75;;;;;13.43;72.97;100817.19;5021813;28;45439;-90
2022/10/31 02:58:41;;;;;;;;;6.00;6.00;;;;;13.67;72.80;100866.09;5020121;28;45527;-91
2022/10/31 03:01:34;;;;;;;;;7.00;7.00;;;;;14.97;73.17;101072.41;5021840;28;45383;-91
2022/10/31 03:04:30;;;;;;;;;9.00;8.00;;;;;14.97;72.91;101067.09;5041345;28;46835;-91
2022/10/31 03:07:33;;;;;;;;;8.00;7.00;;;;;14.96;73.14;101065.34;5020287;28;45388;-91
2022/10/31 03:10:12;;;;;;;;;7.50;7.00;;;;;14.55;72.82;100999.13;5035847;28;45413;-91
2022/10/31 03:12:44;;;;;;;;;8.00;8.00;;;;;14.32;73.47;100957.25;5020174;28;44843;-89
2022/10/31 03:15:20;;;;;;;;;8.25;8.25;;;;;13.83;73.05;100863.00;5031204;28;46902;-91
2022/10/31 03:17:53;;;;;;;;;11.50;10.50;;;;;14.42;73.12;100978.25;5045104;28;45342;-90
2022/10/31 03:20:27;;;;;;;;;9.25;9.25;;;;;13.31;73.53;100780.34;5065766;28;45360;-91
2022/10/31 03:22:56;;;;;;;;;8.00;7.00;;;;;13.41;73.23;100791.63;5083420;28;45351;-90
2022/10/31 03:25:22;;;;;;;;;13.00;10.25;;;;;13.42;73.05;100817.25;5079624;28;46413;-91
2022/10/31 03:27:50;;;;;;;;;11.00;10.00;;;;;13.43;73.37;100792.44;5076621;28;45395;-91
2022/10/31 03:30:17;;;;;;;;;9.00;9.00;;;;;14.38;73.10;100988.97;5081784;28;45414;-91
2022/10/31 03:32:52;;;;;;;;;7.75;6.50;;;;;13.90;73.67;100872.53;5090411;28;44941;-92
2022/10/31 03:35:20;;;;;;;;;10.50;9.00;;;;;14.38;73.36;100974.81;5079812;28;47239;-92
2022/10/31 03:37:49;;;;;;;;;12.00;8.25;;;;;14.27;73.50;100926.41;5078345;28;45294;-93
2022/10/31 03:40:21;;;;;;;;;7.50;7.00;;;;;13.25;73.75;100754.84;5065971;28;45197;-92
2022/10/31 03:43:03;;;;;;;;;9.50;9.25;;;;;13.51;73.39;100801.06;5066628;28;45313;-92
2022/10/31 03:45:31;;;;;;;;;8.25;7.25;;;;;13.32;73.41;100772.34;5076250;28;47267;-92
2022/10/31 03:47:59;;;;;;;;;12.25;9.25;;;;;13.27;73.28;100782.22;5062552;28;45286;-93
2022/10/31 03:50:30;;;;;;;;;12.00;8.75;;;;;14.92;73.57;101045.94;5077335;28;45350;-91
2022/10/31 03:53:13;;;;;;;;;12.50;10.50;;;;;14.33;73.68;100932.44;5077127;28;45537;-92
2022/10/31 03:56:11;;;;;;;;;13.50;11.75;;;;;14.38;73.19;100941.13;5076499;28;48044;-90
2022/10/31 03:58:48;;;;;;;;;11.50;11.00;;;;;14.63;73.67;100982.97;5077613;27;45295;-92
2022/10/31 04:01:18;;;;;;;;;8.50;8.50;;;;;13.31;73.36;100757.31;5083778;28;45214;-91
2022/10/31 04:03:44;;;;;;;;;11.50;11.50;;;;;12.79;73.69;100665.94;5082781;28;45429;-91
2022/10/31 04:06:14;;;;;;;;;12.25;11.00;;;;;13.71;73.51;100820.84;5066544;28;46992;-92
2022/10/31 04:08:53;;;;;;;;;15.00;12.75;;;;;14.32;73.50;100949.28;5064311;28;45219;-92
2022/10/31 04:11:23;;;;;;;;;13.50;13.25;;;;;13.33;73.59;100762.63;5071740;27;45272;-91
2022/10/31 04:13:53;;;;;;;;;10.50;10.00;;;;;13.73;73.78;100840.28;5085906;28;45220;-92
2022/10/31 04:16:21;;;;;;;;;8.25;8.25;;;;;14.20;73.83;100907.13;5080486;28;47396;-92
2022/10/31 04:18:47;;;;;;;;;11.25;11.25;;;;;14.04;73.89;100885.41;5080307;27;45334;-92
2022/10/31 04:21:12;;;;;;;;;11.50;11.25;;;;;14.06;73.81;100882.72;5081747;28;45311;-92
2022/10/31 04:23:38;;;;;;;;;12.75;12.75;;;;;13.96;73.96;100867.03;5089098;28;45588;-92
2022/10/31 04:26:04;;;;;;;;;15.75;13.25;;;;;14.24;73.54;100913.19;5082385;28;47356;-91
2022/10/31 04:28:33;;;;;;;;;13.75;11.00;;;;;13.67;73.93;100823.59;5079817;28;45767;-91
2022/10/31 04:30:59;;;;;;;;;13.00;12.00;;;;;13.82;73.94;100848.00;5088444;28;45362;-91
2022/10/31 04:33:24;;;;;;;;;13.75;10.50;;;;;12.13;73.77;100570.53;5103952;27;44881;-91
2022/10/31 04:35:49;;;;;;;;;11.25;10.75;;;;;13.45;74.07;100785.31;5080656;28;46896;-90
2022/10/31 04:38:15;;;;;;;;;9.25;9.25;;;;;13.59;73.92;100806.13;5083310;28;45358;-90
2022/10/31 04:40:40;;;;;;;;;14.50;12.75;;;;;14.23;74.35;100920.31;5089164;27;45455;-90
2022/10/31 04:43:06;;;;;;;;;16.25;14.25;;;;;13.73;74.15;100833.19;5085409;28;45270;-91
2022/10/31 04:45:31;;;;;;;;;12.00;12.00;;;;;13.85;74.39;100834.63;5085215;28;46949;-94
2022/10/31 04:47:57;;;;;;;;;11.75;11.75;;;;;13.28;74.03;100767.16;5082339;28;45757;-92
2022/10/31 04:50:23;;;;;;;;;14.25;13.25;;;;;13.27;73.76;100757.44;5080702;27;45290;-93
2022/10/31 04:52:48;;;;;;;;;13.00;12.00;;;;;13.66;74.30;100807.72;5079922;28;44840;-93
2022/10/31 04:55:14;;;;;;;;;14.00;13.25;;;;;12.21;73.88;100557.06;5082520;27;46763;-93
2022/10/31 04:57:44;;;;;;;;;12.75;12.75;;;;;14.38;74.44;100909.22;5081900;28;45207;-91
2022/10/31 05:00:11;;;;;;;;;13.00;10.25;;;;;14.68;74.29;100946.47;5083569;28;45533;-93
2022/10/31 05:02:50;;;;;;;;;12.25;11.75;;;;;13.84;74.01;100798.34;5089869;28;45251;-93
2022/10/31 05:05:18;;;;;;;;;15.00;12.75;;;;;14.73;74.50;100952.50;5092914;28;47383;-92
2022/10/31 05:07:45;;;;;;;;;10.75;10.25;;;;;12.53;74.52;100582.69;5095373;28;44677;-93
2022/10/31 05:10:18;;;;;;;;;15.25;11.00;;;;;12.71;74.29;100621.06;5083808;27;45272;-92
2022/10/31 05:12:52;;;;;;;;;12.00;10.25;;;;;14.80;75.14;100984.22;5095358;27;45343;-93
2022/10/31 05:15:18;;;;;;;;;9.75;9.75;;;;;13.85;74.48;100808.06;5096898;28;46367;-92
2022/10/31 05:17:44;;;;;;;;;12.50;9.75;;;;;13.42;74.47;100726.97;5089824;28;44787;-92
2022/10/31 05:20:11;;;;;;;;;10.25;8.50;;;;;13.37;74.31;100712.97;5085701;28;45449;-91
2022/10/31 05:22:36;;;;;;;;;10.75;9.50;;;;;14.21;74.64;100847.69;5088090;28;45369;-90
2022/10/31 05:25:02;;;;;;;;;13.50;12.00;;;;;14.06;74.04;100816.28;5085844;28;46507;-91
2022/10/31 05:27:28;;;;;;;;;9.00;9.00;;;;;14.40;74.44;100875.47;5101257;27;45399;-90
2022/10/31 05:29:53;;;;;;;;;10.75;10.75;;;;;13.47;74.17;100717.13;5079711;28;45335;-91
2022/10/31 05:32:18;;;;;;;;;10.75;8.50;;;;;14.63;74.41;100905.81;5099683;27;45456;-91
2022/10/31 05:34:44;;;;;;;;;11.00;8.50;;;;;14.48;74.48;100887.66;5077385;28;47253;-90
2022/10/31 05:37:09;;;;;;;;;9.50;9.50;;;;;14.25;74.82;100838.72;5078826;28;45402;-92
2022/10/31 05:39:35;;;;;;;;;12.75;10.75;;;;;14.10;74.55;100820.59;5083656;27;45213;-92
2022/10/31 05:42:00;;;;;;;;;11.00;10.00;;;;;14.78;74.43;100949.69;5101678;27;45253;-93
2022/10/31 05:44:26;;;;;;;;;9.00;9.00;;;;;14.62;74.99;100927.16;5080580;28;46953;-92
2022/10/31 05:46:52;;;;;;;;;9.00;8.00;;;;;14.78;74.42;100951.50;5079559;28;45446;-93
2022/10/31 05:49:17;;;;;;;;;8.25;8.25;;;;;13.70;74.73;100760.69;5096709;27;45405;-92
2022/10/31 05:51:44;;;;;;;;;12.75;10.25;;;;;14.77;74.58;100936.44;5083383;28;45365;-92
2022/10/31 05:54:38;;;;;;;;;9.25;7.75;;;;;14.19;75.05;100833.59;5067251;28;47920;-91
2022/10/31 05:57:04;;;;;;;;;10.00;10.00;;;;;14.26;74.67;100848.44;5080846;28;45402;-93
2022/10/31 05:59:29;;;;;;;;;9.50;9.50;;;;;13.73;74.86;100760.59;5083319;28;45464;-93
2022/10/31 06:01:55;;;;;;;;;13.00;12.00;;;;;12.49;74.50;100535.94;5067103;28;45679;-91
2022/10/31 06:04:20;;;;;;;;;10.75;10.00;;;;;12.89;74.74;100610.84;5096668;27;45980;-92
2022/10/31 06:06:46;;;;;;;;;11.00;9.75;;;;;12.01;74.79;100452.50;5089862;27;45270;-92
2022/10/31 06:09:12;;;;;;;;;10.50;9.50;;;;;14.77;74.76;100936.44;5063686;28;45273;-93
2022/10/31 06:11:37;;;;;;;;;13.50;11.00;;;;;13.49;74.75;100707.31;5099819;27;45405;-93
2022/10/31 06:14:03;;;;;;;;;9.75;9.75;;;;;14.75;74.58;100924.03;5101571;27;47333;-92
2022/10/31 06:16:29;;;;;;;;;8.00;8.00;;;;;14.23;74.70;100824.63;5085797;27;45251;-92
2022/10/31 06:18:55;;;;;;;;;10.75;8.00;;;;;14.18;74.73;100808.81;5080787;28;45429;-92
2022/10/31 06:21:20;;;;;;;;;9.00;8.25;;;;;12.95;74.82;100597.38;5079846;28;45235;-94
2022/10/31 06:23:57;;;;;;;;;6.00;5.25;;;;;14.74;74.88;100901.03;5078761;28;48055;-92
2022/10/31 06:26:22;;;;;;;;;8.00;8.00;;;;;13.14;74.58;100633.06;5063510;28;45489;-92
2022/10/31 06:32:13;;;;;;;;;9.25;6.75;;;;;14.71;74.65;100901.13;5101187;27;44739;-92
2022/10/31 06:34:40;;;;;;;;;7.75;7.25;;;;;13.71;74.54;100735.84;5095440;28;45618;-92
2022/10/31 06:37:53;;;;;;;;;8.50;8.50;;;;;12.44;74.93;100548.47;5088167;27;45408;-92
2022/10/31 06:40:19;;;;;;;;;11.75;9.25;;;;;13.45;74.28;100703.00;5089989;28;44840;-93
2022/10/31 06:42:46;;;;;;;;;9.25;8.00;;;;;12.32;75.01;100511.72;5098592;27;45334;-92
2022/10/31 06:45:42;;;;;;;;;6.50;6.00;;;;;13.11;74.33;100635.81;5064708;28;45198;-92
2022/10/31 06:48:08;;;;;;;;;6.00;5.25;;;;;14.29;74.67;100840.38;5098464;27;45208;-92
2022/10/31 06:50:33;;;;;;;;;8.00;8.00;;;;;14.66;74.54;100888.91;5080693;27;45263;-92
2022/10/31 06:53:02;;;;;;;;;7.75;7.75;;;;;14.35;74.54;100845.50;5079049;28;45585;-92
2022/10/31 06:55:34;;;;;;;;;9.75;9.75;;;;;14.49;74.77;100858.34;5079691;28;46954;-92
2022/10/31 06:58:03;;;;;;;;;8.75;7.75;;;;;14.50;74.63;100856.53;5066051;28;45201;-92
2022/10/31 07:00:31;;;;;;;;;7.75;6.50;;;;;13.09;74.46;100611.13;5067896;28;45352;-92
2022/10/31 07:03:01;;;;;;;;;7.50;7.50;;;;;14.06;74.92;100777.31;5078372;28;45521;-91
2022/10/31 07:05:27;;;;;;;;;6.00;6.00;;;;;12.24;74.33;100467.75;5080206;28;48131;-92
2022/10/31 07:08:06;;;;;;;;;9.75;7.25;;;;;14.19;74.58;100797.25;5093050;28;44928;-93
2022/10/31 07:10:33;;;;;;;;;8.50;7.00;;;;;12.67;74.78;100544.31;5104342;27;44775;-93
2022/10/31 07:13:01;;;;;;;;;8.25;8.25;;;;;14.35;75.16;100821.56;5094596;27;45394;-93
2022/10/31 07:15:29;;;;;;;;;9.50;7.75;;;;;14.34;74.65;100825.13;5085770;27;46351;-94
2022/10/31 07:18:00;;;;;;;;;12.00;10.50;;;;;13.50;74.63;100679.84;5083593;27;45456;-93
2022/10/31 07:20:25;;;;;;;;;12.75;12.00;;;;;13.61;75.01;100704.28;5087510;27;45217;-93
2022/10/31 07:22:51;;;;;;;;;8.25;8.00;;;;;14.03;74.73;100749.03;5104109;27;45257;-91
2022/10/31 07:25:16;;;;;;;;;10.75;10.50;;;;;14.24;75.52;100783.81;5086415;27;47196;-91
2022/10/31 07:27:43;;;;;;;;;10.25;10.25;;;;;13.91;75.22;100729.94;5103970;27;45350;-92
2022/10/31 07:30:12;;;;;;;;;9.50;8.50;;;;;14.17;75.05;100766.34;5084197;27;45271;-93
2022/10/31 07:32:44;;;;;;;;;9.50;8.25;;;;;14.49;75.16;100822.91;5087537;27;44930;-92
2022/10/31 07:35:13;;;;;;;;;11.00;9.00;;;;;13.91;74.82;100698.94;5085708;27;48251;-92
2022/10/31 07:37:39;;;;;;;;;10.50;8.50;;;;;13.31;75.12;100605.16;5104821;27;45221;-94
2022/10/31 07:40:06;;;;;;;;;12.75;12.50;;;;;12.35;75.15;100448.03;5086930;27;45318;-94
2022/10/31 07:42:40;;;;;;;;;10.75;10.75;;;;;13.76;74.97;100684.34;5091497;27;44931;-92
2022/10/31 07:45:07;;;;;;;;;9.00;9.00;;;;;14.79;75.06;100850.34;5088822;27;46243;-92
2022/10/31 07:47:43;;;;;;;;;13.00;11.75;;;;;13.79;75.08;100683.38;5084978;27;45453;-93
2022/10/31 07:50:11;;;;;;;;;11.75;9.25;;;;;14.91;75.28;100871.22;5087554;27;45365;-93
2022/10/31 07:52:36;;;;;;;;;8.00;8.00;;;;;14.89;75.19;100862.41;5088040;27;45373;-92
2022/10/31 07:55:04;;;;;;;;;11.50;11.00;;;;;13.40;75.62;100598.75;5086580;27;48224;-92
2022/10/31 07:57:30;;;;;;;;;11.75;9.75;;;;;13.68;74.83;100663.34;5083728;27;45315;-92
2022/10/31 07:59:55;;;;;;;;;11.00;11.00;;;;;14.22;75.43;100732.47;5101111;27;45318;-93
2022/10/31 08:02:21;;;;;;;;;14.75;14.00;;;;;14.92;75.46;100861.44;5100534;27;45328;-92
2022/10/31 08:04:46;;;;;;;;;14.50;14.00;;;;;14.45;75.56;100776.06;5087984;27;47004;-91
2022/10/31 08:07:12;;;;;;;;;13.50;12.75;;;;;15.06;75.44;100869.84;5100188;27;44797;-91
2022/10/31 08:09:37;;;;;;;;;15.00;12.50;;;;;13.76;75.46;100638.31;5076333;27;45333;-93
2022/10/31 08:12:03;;;;;;;;;11.50;9.25;;;;;12.32;75.42;100403.06;5082552;28;45555;-92
2022/10/31 08:14:29;;;;;;;;;13.75;12.25;;;;;14.64;75.19;100777.22;5099375;27;47196;-92
2022/10/31 08:16:54;;;;;;;;;14.50;14.50;;;;;14.21;75.28;100696.19;5081943;28;45260;-91
2022/10/31 08:19:20;;;;;;;;;17.50;16.50;;;;;14.34;75.15;100721.44;5084761;28;45471;-92
2022/10/31 08:21:45;;;;;;;;;16.75;15.25;;;;;14.63;75.30;100762.19;5083632;28;45569;-91
2022/10/31 08:24:11;;;;;;;;;17.00;15.25;;;;;14.29;75.57;100695.94;5105154;27;46679;-91
2022/10/31 08:26:36;;;;;;;;;20.50;20.25;;;;;14.72;75.28;100756.53;5084873;28;45401;-91
2022/10/31 08:29:02;;;;;;;;;15.25;12.25;;;;;14.16;75.29;100652.94;5086432;28;45380;-93
2022/10/31 08:31:29;;;;;;;;;23.00;20.50;;;;;15.31;75.48;100846.81;5086380;28;45300;-91
2022/10/31 08:33:54;;;;;;;;;17.25;17.00;;;;;15.35;75.64;100845.75;5059457;28;46091;-91
2022/10/31 08:36:21;;;;;;;;;17.00;15.75;;;;;15.06;75.90;100789.97;5102072;27;45516;-91
2022/10/31 08:38:48;;;;;;;;;20.00;19.00;;;;;15.39;75.53;100834.94;5081083;27;45314;-91
2022/10/31 08:41:16;;;;;;;;;23.25;20.25;;;;;15.15;75.82;100777.25;5082209;27;45627;-90
2022/10/31 08:43:42;;;;;;;;;19.50;18.25;;;;;15.38;75.69;100805.69;5081623;27;47034;-92
2022/10/31 08:46:07;;;;;;;;;21.00;18.50;;;;;14.89;75.58;100729.38;5084972;28;45297;-91
2022/10/31 08:48:32;;;;;;;;;20.50;17.00;;;;;15.50;75.50;100818.59;5109154;27;45324;-90
2022/10/31 08:50:59;;;;;;;;;19.00;17.50;;;;;14.97;75.62;100718.44;5093282;28;44926;-90
2022/10/31 08:53:25;;;;;;;;;17.75;17.75;;;;;15.56;75.81;100823.69;5092786;28;47253;-91
2022/10/31 08:55:51;;;;;;;;;15.75;14.50;;;;;15.61;75.99;100818.19;5089973;27;45541;-90
2022/10/31 08:58:18;;;;;;;;;18.50;16.25;;;;;15.66;75.71;100805.56;5101533;27;45457;-91
2022/10/31 09:00:46;;;;;;;;;19.50;18.75;;;;;15.44;75.62;100749.53;5100735;27;45392;-91
2022/10/31 09:03:33;;;;;;;;;23.75;23.00;;;;;14.68;75.46;100610.38;5106817;27;46072;-91
2022/10/31 09:06:01;;;;;;;;;16.25;14.75;;;;;15.44;75.57;100729.13;5108841;27;45325;-93
2022/10/31 09:08:28;;;;;;;;;24.00;20.75;;;;;14.89;75.27;100606.97;5086671;27;45389;-90
2022/10/31 09:10:56;;;;;;;;;20.75;16.50;;;;;15.90;75.33;100768.28;5105880;27;45425;-90
2022/10/31 09:13:21;;;;;;;;;17.25;14.25;;;;;14.84;75.36;100573.47;5105544;27;48009;-91
2022/10/31 09:15:49;;;;;;;;;23.00;20.25;;;;;15.97;75.90;100745.78;5103557;27;45208;-91
2022/10/31 09:18:16;;;;;;;;;21.25;19.25;;;;;15.22;75.58;100611.91;5105686;27;45322;-91
2022/10/31 09:20:43;;;;;;;;;23.00;21.75;;;;;15.54;75.28;100657.72;5105064;27;45477;-91
2022/10/31 09:23:14;;;;;;;;;23.00;18.75;;;;;16.13;75.37;100730.91;5102121;27;46313;-90
2022/10/31 09:25:41;;;;;;;;;18.75;16.00;;;;;16.30;75.10;100740.00;5099657;27;45975;-93
2022/10/31 09:28:09;;;;;;;;;21.75;17.75;;;;;16.59;74.90;100737.94;5103435;27;45247;-93
2022/10/31 09:30:36;;;;;;;;;17.25;14.25;;;;;16.24;74.20;100612.28;5104372;27;45338;-94
2022/10/31 09:33:03;;;;;;;;;19.50;16.50;;;;;16.52;74.12;100627.97;5107998;27;46792;-93
2022/10/31 09:35:29;;;;;;;;;18.50;17.75;;;;;17.24;73.81;100687.94;5115729;27;45098;-95
2022/10/31 09:37:55;;;;;;;;;17.25;13.75;;;;;17.06;73.61;100614.88;5104015;27;45367;-94
2022/10/31 09:40:24;;;;;;;;;10.00;10.00;;;;;17.58;72.55;100649.81;5105498;27;45708;-94
2022/10/31 09:43:03;;;;;;;;;16.50;14.00;;;;;17.93;72.73;100639.25;5110659;27;47263;-90
2022/10/31 09:45:54;;;;;;;;;20.25;18.50;;;;;18.28;71.99;100614.31;5109786;27;45291;-94
2022/10/31 09:48:43;;;;;;;;;14.50;14.00;;;;;18.15;71.53;100520.47;5111356;27;45480;-91
2022/10/31 09:51:12;;;;;;;;;23.25;22.50;;;;;17.92;71.17;100428.97;5104572;27;45277;-93
2022/10/31 09:53:43;;;;;;;;;18.25;16.00;;;;;18.79;70.81;100531.34;5104229;27;47475;-91
2022/10/31 09:56:19;;;;;;;;;14.75;14.00;;;;;19.38;71.13;100620.06;5108762;27;45328;-91
2022/10/31 09:58:47;;;;;;;;;20.50;17.75;;;;;19.13;70.58;100508.94;5110540;27;44666;-92
2022/10/31 10:01:43;;;;;;;;;15.25;15.25;;;;;19.38;70.47;100534.31;5106216;27;45429;-90
2022/10/31 10:04:46;;;;;;;;;15.25;14.75;;;;;19.44;70.56;100523.25;5109877;27;47379;-91
2022/10/31 10:07:33;;;;;;;;;15.50;13.50;;;;;19.21;70.40;100446.88;5101100;27;45396;-92
2022/10/31 10:10:32;;;;;;;;;13.50;13.50;;;;;20.35;70.12;100606.44;5103501;27;45444;-91
2022/10/31 10:12:57;;;;;;;;;13.50;12.50;;;;;20.82;70.31;100658.22;5102473;27;45442;-92
2022/10/31 10:15:55;;;;;;;;;12.75;11.75;;;;;20.23;69.88;100534.72;5102307;27;46958;-91
2022/10/31 10:18:20;;;;;;;;;18.50;15.00;;;;;21.01;69.95;100636.41;5108694;27;45289;-92
2022/10/31 10:21:02;;;;;;;;;16.00;14.25;;;;;21.10;69.54;100635.88;5108379;27;45301;-92
2022/10/31 10:23:53;;;;;;;;;14.50;13.25;;;;;21.16;69.20;100633.75;5104679;27;45204;-91
2022/10/31 10:26:25;;;;;;;;;20.00;15.00;;;;;20.70;69.08;100568.53;5101938;27;48469;-93
2022/10/31 10:29:00;;;;;;;;;14.25;13.25;;;;;18.90;69.22;100287.97;5101323;27;45266;-93
2022/10/31 10:31:40;;;;;;;;;15.00;14.00;;;;;20.11;69.29;100517.56;5102584;27;45302;-93
2022/10/31 10:34:05;;;;;;;;;16.75;15.00;;;;;20.63;69.35;100623.53;5089097;27;45443;-93
2022/10/31 10:36:51;;;;;;;;;18.25;16.25;;;;;19.37;69.33;100421.88;5121827;27;46274;-93
2022/10/31 10:39:23;;;;;;;;;23.25;17.75;;;;;20.11;69.16;100567.66;5104396;27;45386;-92
2022/10/31 10:47:38;;;;;;;;;13.50;13.50;;;;;20.06;69.68;100516.97;5036915;28;45351;-94
2022/10/31 10:50:19;;;;;;;;;15.75;15.00;;;;;19.76;69.27;100426.66;5022846;28;45389;-93
2022/10/31 10:53:35;;;;;;;;;16.75;14.50;;;;;21.05;68.89;100572.63;5020381;28;45375;-90
2022/10/31 10:56:17;;;;;;;;;24.50;20.25;;;;;21.37;68.29;100567.84;5022667;28;45414;-92
2022/10/31 10:58:44;;;;;;;;;19.50;15.50;;;;;20.55;67.85;100387.75;5022767;28;46483;-92
2022/10/31 11:01:12;;;;;;;;;20.25;18.75;;;;;21.28;68.13;100458.28;5048891;28;45401;-91
2022/10/31 11:03:39;;;;;;;;;15.25;12.00;;;;;20.89;67.65;100372.19;5052076;28;45395;-94
2022/10/31 11:06:25;;;;;;;;;16.75;15.25;;;;;22.05;67.68;100546.38;5049627;28;45309;-93
2022/10/31 11:08:52;;;;;;;;;12.75;12.75;;;;;21.42;67.30;100425.09;5039196;28;45751;-92
2022/10/31 11:11:37;;;;;;;;;12.75;10.25;;;;;22.26;67.43;100527.88;5035117;28;45439;-92
2022/10/31 11:14:15;;;;;;;;;10.00;10.00;;;;;20.17;67.08;100152.31;5027765;28;45247;-92
2022/10/31 11:16:48;;;;;;;;;10.50;10.50;;;;;21.65;66.92;100378.72;5034505;28;45269;-94
2022/10/31 11:19:26;;;;;;;;;10.50;10.50;;;;;21.87;66.85;100411.31;5034046;28;47072;-91
2022/10/31 11:21:51;;;;;;;;;12.75;11.75;;;;;21.75;63.50;100378.91;5008585;28;45264;-93
2022/10/31 11:24:20;;;;;;;;;10.50;10.50;;;;;21.79;65.80;100375.06;5016994;28;45297;-92
2022/10/31 11:26:48;;;;;;;;;10.75;9.50;;;;;22.33;65.67;100426.91;5035960;28;44817;-92
2022/10/31 11:29:15;;;;;;;;;8.50;8.50;;;;;21.78;65.59;100321.38;5004555;28;46114;-93
2022/10/31 11:31:42;;;;;;;;;16.50;14.50;;;;;22.46;65.01;100408.91;5019264;28;45388;-93
2022/10/31 11:34:23;;;;;;;;;12.25;9.25;;;;;22.92;61.36;100433.44;5017994;28;45436;-92
2022/10/31 11:36:49;;;;;;;;;11.25;9.50;;;;;22.42;63.42;100306.94;5004107;28;45374;-92
2022/10/31 11:39:21;;;;;;;;;13.75;10.50;;;;;23.23;62.12;100384.38;5019081;28;46173;-93
2022/10/31 11:41:49;;;;;;;;;13.50;10.75;;;;;23.12;63.14;100333.13;5021503;28;45834;-93